Temp: 17.8°C   Baro: 1015.8mb
  Wind: 0.9mph   Dir: SSW (198°)
  Rain: 0.6mm (0.0mm/hr)
  Solar: 584W/m2  Hum: 68%
 
Bath Spa Weather Station Historical Data
Daily Summary for August 06, 2020 Units:  English    Metric   Both
Daily Weekly Monthly Yearly Custom
  High: Low: Average:
Temperature: 74.3 °F 63.3 °F 67.4 °F
Dew Point: 66.1 °F 59.4 °F 62.6 °F
Humidity: 92% 71% 85%
Wind Speed: 9mph 0mph 2.5mph
Wind Gust: 15mph - -
Wind- - SSW
Pressure: 30.06 in 29.92 in -
Precipitation: 0.01 in    
Historical Graphs
 
 
Tabular Data for August 06, 2020
Time Temperature Dew Point Pressure Wind Wind Speed Wind Gust Humidity Rainfall Rate (Hourly) solar
00:04 63.9 °F 60.6 °F 29.92 in West 0.8 mph 3 mph 89% 0.00 in 0 W/m2
00:09 63.9 °F 60.6 °F 29.92 in West 0.8 mph 3 mph 89% 0.00 in 0 W/m2
00:14 63.9 °F 60.6 °F 29.93 in West 1.3 mph 3 mph 89% 0.00 in 0 W/m2
00:19 63.9 °F 60.6 °F 29.93 in West 2.1 mph 4 mph 89% 0.00 in 0 W/m2
00:24 63.9 °F 60.6 °F 29.93 in West 0.2 mph 3 mph 89% 0.00 in 0 W/m2
00:29 63.9 °F 60.6 °F 29.93 in West 0.2 mph 1 mph 89% 0.00 in 0 W/m2
00:34 63.9 °F 60.6 °F 29.93 in West 0.2 mph 2 mph 89% 0.00 in 0 W/m2
00:39 63.9 °F 60.7 °F 29.93 in West 1.2 mph 3 mph 89% 0.00 in 0 W/m2
00:44 64 °F 60.8 °F 29.93 in West 0.8 mph 3 mph 89% 0.00 in 0 W/m2
00:49 64 °F 60.8 °F 29.93 in West 0.6 mph 3 mph 89% 0.00 in 0 W/m2
00:54 64 °F 60.8 °F 29.93 in Calm     89% 0.00 in 0 W/m2
00:59 64 °F 60.8 °F 29.93 in Calm     89% 0.00 in 0 W/m2
01:04 64 °F 60.8 °F 29.93 in Calm     89% 0.00 in 0 W/m2
01:09 64 °F 60.8 °F 29.93 in West 0.4 mph 3 mph 89% 0.00 in 0 W/m2
01:14 64 °F 60.8 °F 29.93 in Calm   3 mph 89% 0.00 in 0 W/m2
01:19 64 °F 60.8 °F 29.93 in Calm   1 mph 89.2% 0.00 in 0 W/m2
01:24 64.1 °F 60.9 °F 29.93 in Calm     89% 0.00 in 0 W/m2
01:28 64.1 °F 60.8 °F 29.93 in West 0.9 mph 3 mph 89% 0.00 in 0 W/m2
01:34 64.1 °F 60.9 °F 29.94 in West 1.6 mph 4 mph 89% 0.00 in 0 W/m2
01:39 64.1 °F 61 °F 29.94 in West 1 mph 3 mph 89.6% 0.00 in 0 W/m2
01:44 64.2 °F 61.1 °F 29.94 in West 2.1 mph 4 mph 89.8% 0.00 in 0 W/m2
01:49 64.1 °F 61.1 °F 29.94 in West 0.6 mph 4 mph 89.8% 0.00 in 0 W/m2
01:54 64.2 °F 61.1 °F 29.93 in West 0.2 mph 2 mph 89.8% 0.00 in 0 W/m2
01:59 64 °F 61 °F 29.93 in West 0.5 mph 4 mph 89.6% 0.00 in 0 W/m2
02:04 64 °F 60.8 °F 29.93 in West 1.2 mph 3 mph 89% 0.00 in 0 W/m2
02:09 64 °F 60.8 °F 29.93 in West 1 mph 4 mph 89% 0.00 in 0 W/m2
02:14 64 °F 60.8 °F 29.94 in West 1.6 mph 4 mph 89% 0.00 in 0 W/m2
02:19 64 °F 60.8 °F 29.94 in West 3.3 mph 5 mph 89% 0.00 in 0 W/m2
02:24 64 °F 60.8 °F 29.94 in West 2.7 mph 5 mph 89% 0.00 in 0 W/m2
02:29 64 °F 60.8 °F 29.94 in West 2.4 mph 4 mph 89% 0.00 in 0 W/m2
02:34 64 °F 60.8 °F 29.94 in West 1.7 mph 4 mph 89% 0.00 in 0 W/m2
02:39 64 °F 60.8 °F 29.94 in West 0.8 mph 2 mph 89% 0.00 in 0 W/m2
02:44 64 °F 60.8 °F 29.94 in West 2.2 mph 5 mph 89% 0.00 in 0 W/m2
02:49 64 °F 60.8 °F 29.94 in West 1.3 mph 3 mph 89% 0.00 in 0 W/m2
02:54 64 °F 60.8 °F 29.94 in West 1.1 mph 3 mph 89% 0.00 in 0 W/m2
02:59 64 °F 61 °F 29.94 in West 0.2 mph 3 mph 89.8% 0.00 in 0 W/m2
03:04 64 °F 61 °F 29.94 in West 2.4 mph 5 mph 89.8% 0.00 in 0 W/m2
03:09 64 °F 61 °F 29.94 in West 2.1 mph 5 mph 89.8% 0.00 in 0 W/m2
03:14 64 °F 60.9 °F 29.95 in West 1.6 mph 4 mph 89.8% 0.00 in 0 W/m2
03:19 64 °F 61 °F 29.94 in West 0.8 mph 3 mph 90% 0.00 in 0 W/m2
03:24 64 °F 61 °F 29.94 in West 1.7 mph 4 mph 90% 0.00 in 0 W/m2
03:29 64 °F 60.9 °F 29.94 in West 1.6 mph 4 mph 90% 0.00 in 0 W/m2
03:34 64 °F 61 °F 29.95 in West 0.2 mph 3 mph 90% 0.00 in 0 W/m2
03:39 64 °F 61 °F 29.95 in Calm   2 mph 90% 0.00 in 0 W/m2
03:44 63.9 °F 60.8 °F 29.95 in West 1.2 mph 4 mph 90% 0.00 in 0 W/m2
03:49 63.9 °F 60.8 °F 29.95 in West 1.7 mph 4 mph 90% 0.00 in 0 W/m2
03:54 63.9 °F 60.8 °F 29.95 in SW 3.3 mph 6 mph 90% 0.00 in 0 W/m2
03:59 63.9 °F 60.8 °F 29.95 in SW 1.7 mph 5 mph 90% 0.00 in 0 W/m2
04:04 63.9 °F 60.8 °F 29.95 in SW 1.3 mph 4 mph 90% 0.00 in 0 W/m2
04:09 63.9 °F 60.8 °F 29.95 in SW 2.3 mph 6 mph 90% 0.00 in 0 W/m2
04:14 63.8 °F 60.7 °F 29.95 in SW 0.4 mph 4 mph 89.8% 0.00 in 0 W/m2
04:19 63.8 °F 60.7 °F 29.95 in SW 0.8 mph 3 mph 90% 0.00 in 0 W/m2
04:24 63.7 °F 60.6 °F 29.95 in SW 1.6 mph 3 mph 89.8% 0.00 in 0 W/m2
04:29 63.7 °F 60.5 °F 29.95 in SW 1 mph 3 mph 89.5% 0.00 in 0 W/m2
04:34 63.7 °F 60.4 °F 29.95 in SW 0.5 mph 3 mph 89% 0.00 in 0 W/m2
04:39 63.7 °F 60.4 °F 29.95 in SW 0.4 mph 3 mph 89% 0.00 in 0 W/m2
04:44 63.7 °F 60.4 °F 29.95 in SW 0.6 mph 3 mph 89% 0.00 in 0 W/m2
04:49 63.7 °F 60.4 °F 29.95 in SW 1.4 mph 3 mph 89% 0.00 in 0 W/m2
04:54 63.6 °F 60.3 °F 29.95 in Calm   2 mph 89% 0.00 in 0 W/m2
04:59 63.6 °F 60.3 °F 29.95 in Calm     89% 0.00 in 0 W/m2
05:04 63.5 °F 60.3 °F 29.96 in SW 0.6 mph 2 mph 89% 0.00 in 0 W/m2
05:09 63.5 °F 60.3 °F 29.96 in Calm     89% 0.00 in 0 W/m2
05:14 63.5 °F 60.3 °F 29.96 in SW 1 mph 3 mph 89% 0.00 in 0 W/m2
05:19 63.4 °F 60.2 °F 29.96 in SW 0.2 mph 3 mph 89% 0.00 in 0 W/m2
05:24 63.3 °F 60.1 °F 29.96 in Calm     89% 0.00 in 0 W/m2
05:29 63.3 °F 60.1 °F 29.96 in Calm     89% 0.00 in 0 W/m2
05:34 63.3 °F 60.1 °F 29.96 in Calm   3 mph 89% 0.00 in 0 W/m2
05:39 63.3 °F 60.1 °F 29.96 in SW 0.2 mph 2 mph 89% 0.00 in 0 W/m2
05:44 63.3 °F 60.1 °F 29.96 in Calm   1 mph 89% 0.00 in 0 W/m2
05:49 63.3 °F 60.1 °F 29.96 in SW 0.2 mph 4 mph 89% 0.00 in 0 W/m2
05:54 63.3 °F 60.1 °F 29.96 in SW 1.7 mph 5 mph 89% 0.00 in 0 W/m2
05:59 63.3 °F 60.1 °F 29.96 in SW 0.9 mph 5 mph 89% 0.00 in 5 W/m2
06:04 63.3 °F 60.1 °F 29.97 in SW 1.3 mph 5 mph 89% 0.00 in 5 W/m2
06:09 63.3 °F 60.1 °F 29.97 in SSW 1.6 mph 4 mph 89% 0.00 in 12 W/m2
06:14 63.3 °F 60.1 °F 29.97 in SSW 0.5 mph 2 mph 89% 0.00 in 12 W/m2
06:19 63.3 °F 60.1 °F 29.97 in Calm   2 mph 89% 0.00 in 14 W/m2
06:24 63.3 °F 60.1 °F 29.97 in SSW 0.4 mph 3 mph 89% 0.00 in 16 W/m2
06:28 63.3 °F 60.1 °F 29.97 in SSW 0.2 mph 3 mph 89% 0.00 in 18 W/m2
06:34 63.3 °F 60.1 °F 29.97 in SSW 0.2 mph 2 mph 89% 0.00 in 19 W/m2
06:39 63.3 °F 60.1 °F 29.97 in SSW 0.6 mph 2 mph 89% 0.00 in 21 W/m2
06:44 63.3 °F 60.1 °F 29.97 in South 0.4 mph 3 mph 89% 0.00 in 21 W/m2
06:49 63.3 °F 60.1 °F 29.97 in South 1 mph 3 mph 89% 0.00 in 21 W/m2
06:54 63.3 °F 60.1 °F 29.97 in SSW 2.2 mph 4 mph 89% 0.00 in 26 W/m2
06:59 63.3 °F 60.1 °F 29.97 in SSW 1.8 mph 5 mph 89% 0.00 in 32 W/m2
07:04 63.3 °F 60.1 °F 29.98 in Calm   4 mph 89% 0.00 in 32 W/m2
07:09 63.3 °F 60.1 °F 29.98 in SSW 0.8 mph 4 mph 89% 0.00 in 32 W/m2
07:14 63.3 °F 60.1 °F 29.98 in SSW 1.2 mph 4 mph 89% 0.00 in 44 W/m2
07:19 63.3 °F 60.1 °F 29.98 in SSW 0.6 mph 3 mph 89% 0.00 in 40 W/m2
07:24 63.3 °F 60.2 °F 29.98 in SSW 1 mph 3 mph 89.4% 0.00 in 35 W/m2
07:29 63.3 °F 60.1 °F 29.98 in South 2.2 mph 5 mph 89% 0.00 in 40 W/m2
07:34 63.3 °F 60.2 °F 29.98 in South 0.8 mph 5 mph 89.6% 0.00 in 56 W/m2
07:39 63.3 °F 60.3 °F 29.98 in South 0.8 mph 3 mph 90% 0.00 in 53 W/m2
07:44 63.3 °F 60.3 °F 29.98 in South 0.6 mph 3 mph 90% 0.00 in 47 W/m2
07:49 63.3 °F 60.3 °F 29.99 in Calm   2 mph 90% 0.00 in 46 W/m2
07:54 63.3 °F 60.3 °F 29.99 in South 0.6 mph 3 mph 90% 0.00 in 62 W/m2
07:59 63.3 °F 60.3 °F 29.99 in South 0.4 mph 2 mph 90% 0.00 in 65 W/m2
08:04 63.4 °F 60.4 °F 29.99 in Calm   2 mph 90.2% 0.00 in 54 W/m2
08:09 63.6 °F 60.9 °F 29.99 in Calm     91% 0.00 in 62 W/m2
08:14 63.5 °F 60.8 °F 29.99 in Calm     91% 0.00 in 69 W/m2
08:19 63.7 °F 61 °F 29.99 in Calm   1 mph 91% 0.00 in 69 W/m2
08:24 63.8 °F 61.1 °F 29.99 in Calm     91% 0.00 in 72 W/m2
08:29 63.9 °F 61.2 °F 30.00 in Calm     91% 0.00 in 83 W/m2
08:34 64 °F 61.3 °F 30.00 in Calm     91% 0.00 in 93 W/m2
08:39 64 °F 61.3 °F 30.00 in Calm     91% 0.00 in 137 W/m2
08:43 64.2 °F 61.5 °F 30.00 in South 1 mph 3 mph 91% 0.00 in 109 W/m2
08:49 64.2 °F 61.5 °F 30.00 in South 0.2 mph 2 mph 91% 0.00 in 102 W/m2
08:54 64.3 °F 61.6 °F 30.00 in Calm   1 mph 91% 0.00 in 139 W/m2
08:59 64.3 °F 61.6 °F 30.00 in South 0.6 mph 2 mph 91% 0.00 in 118 W/m2
09:04 64.5 °F 62 °F 30.00 in South 0.2 mph 1 mph 91.6% 0.00 in 90 W/m2
09:09 64.3 °F 61.6 °F 30.00 in South 0.5 mph 3 mph 91% 0.00 in 90 W/m2
09:14 64.4 °F 61.7 °F 30.00 in SSE 1.3 mph 7 mph 91% 0.00 in 76 W/m2
09:19 64.4 °F 61.7 °F 30.00 in South 3 mph 7 mph 91% 0.00 in 77 W/m2
09:24 64.6 °F 62.2 °F 30.01 in South 1 mph 4 mph 92% 0.00 in 69 W/m2
09:29 64.7 °F 62.3 °F 30.01 in SSE 2.5 mph 4 mph 92% 0.00 in 69 W/m2
09:34 64.8 °F 62.3 °F 30.01 in SSE 2.2 mph 6 mph 91.8% 0.00 in 86 W/m2
09:39 64.9 °F 62.2 °F 30.01 in SSE 3.6 mph 6 mph 91% 0.00 in 107 W/m2
09:44 64.9 °F 62.2 °F 30.00 in SSE 3.2 mph 6 mph 91% 0.00 in 142 W/m2
09:49 65 °F 62.3 °F 30.00 in SSE 3.1 mph 5 mph 91% 0.00 in 127 W/m2
09:54 65.1 °F 62.4 °F 30.01 in SE 1.8 mph 6 mph 91% 0.00 in 114 W/m2
09:59 65.3 °F 62.6 °F 30.01 in SSE 2.9 mph 5 mph 91% 0.00 in 109 W/m2
10:04 65.5 °F 62.8 °F 30.01 in South 2.8 mph 7 mph 91% 0.00 in 105 W/m2
10:08 65.7 °F 63 °F 30.01 in South 1.5 mph 7 mph 91% 0.00 in 105 W/m2
10:14 65.8 °F 63 °F 30.01 in South 3.1 mph 6 mph 90.6% 0.00 in 121 W/m2
10:19 66 °F 63 °F 30.01 in South 2.8 mph 7 mph 90% 0.00 in 118 W/m2
10:24 66.4 °F 63.3 °F 30.01 in South 1.3 mph 4 mph 90% 0.00 in 127 W/m2
10:29 66.4 °F 63.3 °F 30.01 in SSW 3.9 mph 7 mph 90% 0.00 in 125 W/m2
10:34 66.6 °F 63.5 °F 30.01 in SW 2.7 mph 7 mph 90% 0.00 in 104 W/m2
10:39 66.6 °F 63.6 °F 30.01 in South 2.8 mph 7 mph 90% 0.00 in 137 W/m2
10:44 66.7 °F 63.6 °F 30.01 in SSE 4 mph 8 mph 90% 0.00 in 176 W/m2
10:49 66.6 °F 63.5 °F 30.01 in South 3.3 mph 8 mph 90% 0.00 in 265 W/m2
10:54 66.7 °F 63.7 °F 30.01 in SSE 2.4 mph 5 mph 90.4% 0.00 in 279 W/m2
10:58 66.7 °F 64 °F 30.01 in SSE 3.2 mph 5 mph 91% 0.00 in 244 W/m2
11:04 66.9 °F 64.2 °F 30.01 in South 2 mph 8 mph 91% 0.00 in 295 W/m2
11:09 67.2 °F 64.5 °F 30.01 in SSE 6.2 mph 12 mph 91% 0.00 in 570 W/m2
11:14 67.4 °F 64.7 °F 30.01 in SSE 5.3 mph 10 mph 91% 0.00 in 570 W/m2
11:19 67.6 °F 64.7 °F 30.01 in South 4.5 mph 12 mph 90.4% 0.00 in 380 W/m2
11:24 67.9 °F 64.9 °F 30.01 in South 5.8 mph 12 mph 90% 0.00 in 338 W/m2
11:29 68.4 °F 65 °F 30.01 in SSE 3 mph 9 mph 89.2% 0.00 in 313 W/m2
11:34 68.4 °F 64.8 °F 30.01 in SSE 8.2 mph 12 mph 88.4% 0.01 in 237 W/m2
11:39 68.2 °F 64.4 °F 30.01 in SSE 5.3 mph 11 mph 88% 0.01 in 250 W/m2
11:44 68.3 °F 64.5 °F 30.01 in South 4.1 mph 8 mph 88% 0.01 in 281 W/m2
11:49 68.3 °F 64.7 °F 30.01 in South 5.2 mph 8 mph 88.5% 0.01 in 271 W/m2
11:54 68.4 °F 64.9 °F 30.01 in SSE 4.7 mph 9 mph 89% 0.01 in 287 W/m2
11:59 68.2 °F 64.8 °F 30.01 in South 5.2 mph 9 mph 89% 0.01 in 248 W/m2
12:04 68.2 °F 64.8 °F 30.01 in South 6.2 mph 13 mph 89% 0.01 in 367 W/m2
12:09 68.2 °F 64.8 °F 30.01 in South 5.6 mph 13 mph 89.2% 0.01 in 853 W/m2
12:14 68.5 °F 65.3 °F 30.01 in South 4.9 mph 9 mph 89.6% 0.01 in 946 W/m2
12:19 69.2 °F 66.1 °F 30.01 in South 3.7 mph 8 mph 90% 0.01 in 889 W/m2
12:24 69.4 °F 65.9 °F 30.02 in South 6.5 mph 12 mph 89% 0.01 in 613 W/m2
12:29 69.3 °F 65.7 °F 30.02 in South 4.9 mph 13 mph 88.4% 0.01 in 686 W/m2
12:34 69.6 °F 65.8 °F 30.02 in South 7.5 mph 12 mph 87.8% 0.01 in 686 W/m2
12:39 69.8 °F 65.9 °F 30.02 in South 4.1 mph 12 mph 87.2% 0.00 in 622 W/m2
12:44 69.5 °F 65.7 °F 30.02 in South 6.4 mph 11 mph 87.3% 0.00 in 406 W/m2
12:49 69.3 °F 65.5 °F 30.02 in South 4 mph 11 mph 87.8% 0.00 in 429 W/m2
12:54 69.5 °F 65.7 °F 30.02 in South 4.9 mph 10 mph 87.8% 0.00 in 504 W/m2
12:59 69.6 °F 65.7 °F 30.02 in SSW 5.3 mph 10 mph 87% 0.00 in 330 W/m2
13:04 69.4 °F 65.5 °F 30.02 in SSW 6.6 mph 10 mph 87% 0.00 in 374 W/m2
13:09 69.7 °F 65.7 °F 30.02 in South 4.1 mph 11 mph 86.8% 0.00 in 387 W/m2
13:14 69.9 °F 65.6 °F 30.02 in South 4.2 mph 11 mph 86% 0.00 in 378 W/m2
13:19 70.1 °F 65.8 °F 30.02 in South 4.7 mph 11 mph 86% 0.00 in 371 W/m2
13:24 70.2 °F 65.6 °F 30.02 in South 5.2 mph 11 mph 85.2% 0.00 in 272 W/m2
13:29 70.3 °F 65.7 °F 30.02 in South 4.1 mph 11 mph 85% 0.00 in 272 W/m2
13:34 70.5 °F 65.8 °F 30.02 in South 5.9 mph 13 mph 85% 0.00 in 322 W/m2
13:39 70.3 °F 65.3 °F 30.02 in South 5.7 mph 14 mph 84.2% 0.00 in 232 W/m2
13:44 70.3 °F 65.5 °F 30.02 in South 4.5 mph 14 mph 84.8% 0.00 in 197 W/m2
13:49 70.4 °F 65.8 °F 30.02 in SSW 2.5 mph 9 mph 85% 0.00 in 237 W/m2
13:54 70.5 °F 65.5 °F 30.02 in SSW 5.7 mph 11 mph 84% 0.00 in 304 W/m2
13:59 70.3 °F 65.3 °F 30.02 in SSW 3.5 mph 7 mph 84% 0.00 in 262 W/m2
14:04 70.3 °F 65.3 °F 30.02 in South 5.8 mph 10 mph 84% 0.00 in 287 W/m2
14:09 70.3 °F 65.7 °F 30.02 in South 5.2 mph 10 mph 85% 0.00 in 626 W/m2
14:14 70.7 °F 65.9 °F 30.03 in WSW 7 mph 9 mph 84.6% 0.00 in 568 W/m2
14:19 71 °F 66 °F 30.02 in SSW 3.5 mph 10 mph 84% 0.00 in 295 W/m2
14:24 70.7 °F 65.6 °F 30.02 in South 7.4 mph 11 mph 83.8% 0.00 in 392 W/m2
14:29 70.4 °F 65.4 °F 30.02 in South 6.7 mph 10 mph 84% 0.00 in 371 W/m2
14:34 70.7 °F 65.7 °F 30.02 in South 4.8 mph 10 mph 84% 0.00 in 272 W/m2
14:38 70.8 °F 65.8 °F 30.02 in South 6.2 mph 10 mph 84% 0.00 in 262 W/m2
14:44 70.8 °F 65.7 °F 30.02 in South 5.3 mph 10 mph 84% 0.00 in 232 W/m2
14:49 70.8 °F 65.7 °F 30.02 in South 5.6 mph 12 mph 83.8% 0.00 in 274 W/m2
14:54 71 °F 65.9 °F 30.03 in SSW 3.8 mph 12 mph 84% 0.00 in 478 W/m2
14:59 71.2 °F 65.8 °F 30.03 in SSW 4.8 mph 12 mph 83% 0.00 in 429 W/m2
15:04 71.1 °F 65.3 °F 30.03 in SSW 5.6 mph 11 mph 82% 0.00 in 403 W/m2
15:09 71.5 °F 66.1 °F 30.03 in SSW 3.7 mph 11 mph 82.8% 0.00 in 476 W/m2
15:14 72.1 °F 66.1 °F 30.03 in SSW 7.3 mph 13 mph 81.4% 0.00 in 283 W/m2
15:18 71.3 °F 65.3 °F 30.03 in South 6.3 mph 10 mph 81.3% 0.00 in 232 W/m2
15:24 71.3 °F 65.6 °F 30.03 in SSE 4.5 mph 12 mph 82% 0.00 in 357 W/m2
15:29 71.3 °F 65.6 °F 30.03 in SSE 5.3 mph 12 mph 82% 0.00 in 374 W/m2
15:34 71.4 °F 65.7 °F 30.03 in South 4.7 mph 9 mph 82% 0.00 in 272 W/m2
15:39 71.5 °F 65.7 °F 30.03 in South 5.3 mph 12 mph 82% 0.00 in 329 W/m2
15:44 71.9 °F 65.9 °F 30.03 in South 4.8 mph 12 mph 81.4% 0.00 in 438 W/m2
15:49 72.1 °F 65.8 °F 30.03 in SE 4.9 mph 9 mph 80.4% 0.00 in 329 W/m2
15:54 72.2 °F 65.8 °F 30.03 in South 5.3 mph 10 mph 80% 0.00 in 323 W/m2
15:59 72.3 °F 65.5 °F 30.03 in South 4.3 mph 11 mph 79% 0.00 in 517 W/m2
16:04 72.5 °F 65.4 °F 30.03 in South 5.4 mph 15 mph 78.2% 0.00 in 406 W/m2
16:09 72.9 °F 65.2 °F 30.03 in South 9 mph 14 mph 76.6% 0.00 in 343 W/m2
16:14 72.8 °F 65 °F 30.03 in South 4.5 mph 10 mph 76.5% 0.00 in 290 W/m2
16:19 73 °F 65.5 °F 30.02 in SSW 4.8 mph 10 mph 77% 0.00 in 323 W/m2
16:24 73.4 °F 65.3 °F 30.03 in SSW 4.8 mph 10 mph 76% 0.00 in 311 W/m2
16:29 73.5 °F 65.1 °F 30.03 in South 7.2 mph 12 mph 75.2% 0.00 in 367 W/m2
16:34 73.7 °F 65.1 °F 30.02 in SSW 5.8 mph 14 mph 74.6% 0.00 in 392 W/m2
16:39 73.8 °F 64.9 °F 30.02 in South 4.5 mph 13 mph 74% 0.00 in 396 W/m2
16:43 73.7 °F 64.8 °F 30.03 in South 6.2 mph 15 mph 74% 0.00 in 325 W/m2
16:49 73.5 °F 64.7 °F 30.03 in SSW 5.3 mph 12 mph 74% 0.00 in 297 W/m2
16:54 73.7 °F 65 °F 30.02 in SW 5.3 mph 10 mph 74.4% 0.00 in 334 W/m2
16:59 73.6 °F 64.8 °F 30.02 in SSW 5.9 mph 11 mph 74% 0.00 in 279 W/m2
17:04 73.5 °F 64.7 °F 30.02 in SSW 4.9 mph 10 mph 74% 0.00 in 258 W/m2
17:09 73.6 °F 64.8 °F 30.02 in SSW 5 mph 9 mph 74% 0.00 in 223 W/m2
17:14 73.6 °F 64.8 °F 30.02 in South 6.2 mph 11 mph 74% 0.00 in 213 W/m2
17:19 73.6 °F 64.8 °F 30.02 in SW 3.9 mph 11 mph 74% 0.00 in 195 W/m2
17:24 73.7 °F 64.8 °F 30.02 in South 4.8 mph 10 mph 74% 0.00 in 206 W/m2
17:29 73.7 °F 64.9 °F 30.02 in SSW 3.4 mph 9 mph 74% 0.00 in 302 W/m2
17:34 74.1 °F 64.9 °F 30.01 in SSW 3 mph 9 mph 73% 0.00 in 287 W/m2
17:39 74.1 °F 64.8 °F 30.01 in SSW 4.3 mph 9 mph 72.6% 0.00 in 221 W/m2
17:44 74.1 °F 64.8 °F 30.02 in SSW 4.7 mph 10 mph 72.8% 0.00 in 186 W/m2
17:49 73.8 °F 64.7 °F 30.02 in SSW 3.7 mph 10 mph 73% 0.00 in 223 W/m2
17:54 73.8 °F 64.6 °F 30.02 in SSW 4.7 mph 9 mph 72.8% 0.00 in 234 W/m2
17:59 73.7 °F 64.5 °F 30.02 in South 6.1 mph 13 mph 73% 0.00 in 221 W/m2
18:04 73.5 °F 64.4 °F 30.02 in South 5.7 mph 10 mph 73.2% 0.00 in 206 W/m2
18:09 73.5 °F 64.6 °F 30.02 in SSW 3.2 mph 10 mph 73.6% 0.00 in 200 W/m2
18:14 73.7 °F 64.6 °F 30.02 in South 5.7 mph 13 mph 73.3% 0.00 in 345 W/m2
18:19 73.6 °F 64.5 °F 30.02 in SSW 4.4 mph 13 mph 73.2% 0.00 in 359 W/m2
18:24 73.8 °F 64.7 °F 30.01 in South 3.5 mph 8 mph 73.2% 0.00 in 490 W/m2
18:29 74 °F 64.7 °F 30.01 in South 6.5 mph 11 mph 72.6% 0.00 in 401 W/m2
18:34 74.3 °F 65.1 °F 30.01 in SSW 1.8 mph 6 mph 73% 0.00 in 315 W/m2
18:39 74.3 °F 64.4 °F 30.02 in WSW 5.9 mph 9 mph 71.4% 0.00 in 141 W/m2
18:44 73.9 °F 64.1 °F 30.02 in SW 4.4 mph 7 mph 71.6% 0.00 in 156 W/m2
18:49 73.8 °F 64.2 °F 30.02 in SSW 3.6 mph 9 mph 72% 0.00 in 213 W/m2
18:54 73.8 °F 64.6 °F 30.02 in SW 3.7 mph 7 mph 72.8% 0.00 in 264 W/m2
18:59 73.8 °F 64.6 °F 30.02 in SSW 2.7 mph 7 mph 73% 0.00 in 163 W/m2
19:04 73.7 °F 64.4 °F 30.02 in South 6.2 mph 12 mph 72.8% 0.00 in 287 W/m2
19:09 73.8 °F 64.2 °F 30.02 in SSW 2.3 mph 8 mph 72% 0.00 in 239 W/m2
19:14 73.8 °F 63.9 °F 30.02 in South 3.1 mph 9 mph 71.4% 0.00 in 213 W/m2
19:19 73.7 °F 63.7 °F 30.03 in SSW 5.6 mph 10 mph 71% 0.00 in 192 W/m2
19:24 73.1 °F 63.3 °F 30.03 in WSW 3.7 mph 10 mph 71.4% 0.00 in 44 W/m2
19:29 72.9 °F 63.3 °F 30.03 in SW 3.2 mph 7 mph 72% 0.00 in 42 W/m2
19:34 72.7 °F 63.4 °F 30.03 in West 3.2 mph 9 mph 72.8% 0.00 in 49 W/m2
19:39 72.7 °F 63.5 °F 30.03 in WSW 2.2 mph 9 mph 73% 0.00 in 98 W/m2
19:44 72.9 °F 63.5 °F 30.03 in West 2.9 mph 7 mph 72.6% 0.00 in 100 W/m2
19:49 73 °F 63.5 °F 30.03 in SW 1.7 mph 5 mph 72% 0.00 in 91 W/m2
19:54 72.9 °F 63.5 °F 30.03 in SW 3.3 mph 8 mph 72.4% 0.00 in 93 W/m2
19:59 72.9 °F 63.7 °F 30.03 in SW 1.5 mph 4 mph 73% 0.00 in 40 W/m2
20:04 72.7 °F 63.5 °F 30.03 in WSW 3.2 mph 5 mph 73% 0.00 in 42 W/m2
20:09 72.3 °F 63.2 °F 30.03 in West 4 mph 7 mph 73.2% 0.00 in 32 W/m2
20:14 72 °F 63.1 °F 30.03 in West 2.3 mph 6 mph 74% 0.00 in 21 W/m2
20:19 71.5 °F 63 °F 30.03 in West 4.1 mph 7 mph 74.6% 0.00 in 16 W/m2
20:24 71.2 °F 62.9 °F 30.03 in West 3.6 mph 6 mph 75% 0.00 in 14 W/m2
20:29 70.9 °F 62.7 °F 30.03 in West 4.6 mph 6 mph 75.2% 0.00 in 12 W/m2
20:34 70.5 °F 62.6 °F 30.03 in West 3.6 mph 6 mph 76% 0.00 in 11 W/m2
20:39 70.3 °F 62.4 °F 30.03 in West 4.4 mph 7 mph 76% 0.00 in 9 W/m2
20:44 70.2 °F 62.5 °F 30.03 in West 4.1 mph 7 mph 76.8% 0.00 in 5 W/m2
20:48 70 °F 62.4 °F 30.03 in West 3.2 mph 6 mph 77% 0.00 in 0 W/m2
20:54 69.7 °F 62.2 °F 30.03 in West 2.4 mph 6 mph 77% 0.00 in 0 W/m2
20:59 69.5 °F 62.2 °F 30.04 in West 2.4 mph 4 mph 77.6% 0.00 in 0 W/m2
21:04 69.3 °F 62.1 °F 30.03 in West 2 mph 4 mph 78% 0.00 in 0 W/m2
21:09 69.1 °F 62 °F 30.04 in West 1.8 mph 4 mph 78.2% 0.00 in 0 W/m2
21:14 69 °F 62.1 °F 30.04 in West 0.4 mph 2 mph 79% 0.00 in 0 W/m2
21:19 68.7 °F 61.9 °F 30.04 in West 0.9 mph 3 mph 79% 0.00 in 0 W/m2
21:24 68.5 °F 61.8 °F 30.04 in West 0.5 mph 3 mph 79.2% 0.00 in 0 W/m2
21:29 68.3 °F 61.8 °F 30.04 in West 0.2 mph 2 mph 80% 0.00 in 0 W/m2
21:34 68.2 °F 61.7 °F 30.04 in Calm     80% 0.00 in 0 W/m2
21:39 68 °F 61.8 °F 30.04 in Calm     80.8% 0.00 in 0 W/m2
21:44 67.6 °F 61.5 °F 30.04 in West 1.6 mph 3 mph 81% 0.00 in 0 W/m2
21:49 67.6 °F 61.7 °F 30.04 in Calm   3 mph 81.6% 0.00 in 0 W/m2
21:54 67.5 °F 61.7 °F 30.04 in Calm     82% 0.00 in 0 W/m2
21:59 67.4 °F 61.6 °F 30.05 in Calm     82% 0.00 in 0 W/m2
22:04 66.9 °F 61.3 °F 30.05 in Calm     82.2% 0.00 in 0 W/m2
22:09 66.7 °F 61.3 °F 30.05 in Calm     83% 0.00 in 0 W/m2
22:14 66.6 °F 61.2 °F 30.05 in Calm     83% 0.00 in 0 W/m2
22:19 66.5 °F 61.1 °F 30.05 in Calm     83% 0.00 in 0 W/m2
22:24 66.4 °F 61.1 °F 30.05 in Calm     83.2% 0.00 in 0 W/m2
22:29 66.3 °F 61.3 °F 30.05 in Calm     84% 0.00 in 0 W/m2
22:34 66 °F 61 °F 30.05 in Calm     84% 0.00 in 0 W/m2
22:39 65.8 °F 60.8 °F 30.05 in Calm     84% 0.00 in 0 W/m2
22:44 65.7 °F 60.6 °F 30.05 in Calm     84% 0.00 in 0 W/m2
22:49 65.5 °F 60.6 °F 30.05 in Calm     84.4% 0.00 in 0 W/m2
22:54 65.1 °F 60.4 °F 30.05 in Calm     85% 0.00 in 0 W/m2
22:59 64.9 °F 60.3 °F 30.05 in Calm     85% 0.00 in 0 W/m2
23:03 64.8 °F 60.1 °F 30.05 in Calm     85% 0.00 in 0 W/m2
23:09 64.7 °F 60.4 °F 30.05 in Calm     86% 0.00 in 0 W/m2
23:14 64.6 °F 60.3 °F 30.06 in Calm     86% 0.00 in 0 W/m2
23:19 64.4 °F 60.1 °F 30.06 in Calm     86% 0.00 in 0 W/m2
23:24 64.2 °F 59.9 °F 30.06 in Calm     86% 0.00 in 0 W/m2
23:29 64 °F 59.7 °F 30.05 in Calm     86% 0.00 in 0 W/m2
23:33 64 °F 60.1 °F 30.06 in Calm     87% 0.00 in 0 W/m2
23:39 63.9 °F 59.9 °F 30.06 in Calm     87% 0.00 in 0 W/m2
23:44 63.8 °F 59.8 °F 30.06 in Calm     87% 0.00 in 0 W/m2
23:49 63.6 °F 59.6 °F 30.06 in Calm     87% 0.00 in 0 W/m2
23:54 63.3 °F 59.4 °F 30.06 in Calm     87% 0.00 in 0 W/m2
23:59 63.3 °F 59.6 °F 30.06 in Calm     87.8% 0.00 in 0 W/m2
Bath Spa Weather
Compliments of Weather Underground - 2 mb